Time;durP1;ratioP1;P1;durP2;ratioP2;P2;SDS_P1;SDS_P2;PMS_P1;PMS_P2;Temp;Humidity;BMP_temperature;BMP_pressure;BME280_temperature;BME280_humidity;BME280_pressure;Samples;Min_cycle;Max_cycle;Signal;HPM_P1;HPM_P2
2023/10/13 00:00:34;;;;;;;12.00;5.80;;;;;;;13.18;55.02;95468.31;5038456;28;20059;-76
2023/10/13 00:03:00;;;;;;;;;;;;;;;13.15;55.00;95469.97;5012495;28;20033;-76
2023/10/13 00:05:33;;;;;;;9.90;5.38;;;;;;;13.10;55.10;95467.75;4999668;28;19929;-76
2023/10/13 00:08:00;;;;;;;12.00;6.10;;;;;;;13.02;55.37;95455.41;5007778;28;20533;-76
2023/10/13 00:10:27;;;;;;;9.77;5.97;;;;;;;13.02;55.19;95464.44;5008312;28;20037;-76
2023/10/13 00:12:53;;;;;;;8.75;5.97;;;;;;;12.96;55.37;95468.97;5007657;28;20040;-76
2023/10/13 00:15:22;;;;;;;9.93;5.35;;;;;;;12.88;55.47;95453.03;5045404;28;20470;-76
2023/10/13 00:17:55;;;;;;;11.80;7.05;;;;;;;12.93;55.46;95461.56;5045856;28;20652;-76
2023/10/13 00:20:37;;;;;;;10.70;5.85;;;;;;;12.93;55.24;95456.03;5027605;28;20044;-76
2023/10/13 00:23:03;;;;;;;6.53;5.43;;;;;;;12.91;55.36;95454.94;5046705;28;20029;-76
2023/10/13 00:25:31;;;;;;;11.02;5.45;;;;;;;12.81;55.59;95448.50;5044838;28;20391;-76
2023/10/13 00:27:57;;;;;;;9.65;5.60;;;;;;;12.77;55.47;95454.13;5045615;28;20082;-76
2023/10/13 00:30:33;;;;;;;10.60;5.78;;;;;;;12.74;55.59;95451.47;5027380;28;20029;-77
2023/10/13 00:32:59;;;;;;;9.65;5.03;;;;;;;12.79;55.55;95461.19;5045516;28;20068;-76
2023/10/13 00:35:29;;;;;;;10.68;5.95;;;;;;;12.75;55.55;95464.84;5026653;28;20057;-76
2023/10/13 00:38:03;;;;;;;7.70;5.80;;;;;;;12.71;55.34;95460.63;5026602;28;20094;-76
2023/10/13 00:43:03;;;;;;;10.15;5.95;;;;;;;12.63;56.09;95462.81;5030402;28;20123;-76
2023/10/13 00:45:29;;;;;;;;;;;;;;;12.64;55.96;95469.09;5029280;28;20067;-76
2023/10/13 00:48:01;;;;;;;8.55;5.85;;;;;;;12.54;56.04;95462.66;5011113;28;19931;-76
2023/10/13 00:50:26;;;;;;;7.25;5.50;;;;;;;12.54;55.92;95461.91;5028009;28;20025;-76
2023/10/13 00:52:52;;;;;;;9.15;5.60;;;;;;;12.48;56.16;95456.91;5011800;28;20067;-76
2023/10/13 00:55:22;;;;;;;8.50;5.60;;;;;;;12.44;56.22;95466.50;5000491;28;20139;-76
2023/10/13 00:57:53;;;;;;;9.32;5.78;;;;;;;12.44;56.50;95475.56;5018254;28;20082;-76
2023/10/13 01:00:19;;;;;;;11.32;5.95;;;;;;;12.40;56.31;95466.59;5026920;28;20040;-76
2023/10/13 01:02:56;;;;;;;8.88;5.68;;;;;;;12.40;56.19;95463.09;4996488;28;20037;-76
2023/10/13 01:05:23;;;;;;;11.00;5.20;;;;;;;12.36;56.49;95471.44;5028410;28;20065;-76
2023/10/13 01:07:52;;;;;;;13.40;5.53;;;;;;;12.34;56.72;95468.34;5027468;28;20036;-76
2023/10/13 01:10:19;;;;;;;10.13;5.53;;;;;;;12.32;56.56;95467.22;5027818;28;20025;-76
2023/10/13 01:12:45;;;;;;;12.40;6.25;;;;;;;12.29;56.83;95466.13;5043991;28;20091;-76
2023/10/13 01:15:15;;;;;;;8.50;5.80;;;;;;;12.27;56.70;95465.00;5045914;28;20040;-75
2023/10/13 01:17:44;;;;;;;10.90;5.47;;;;;;;12.25;56.79;95472.94;5017107;28;20123;-75
2023/10/13 01:20:12;;;;;;;9.60;5.53;;;;;;;12.28;56.96;95469.31;5045638;28;20029;-76
2023/10/13 01:22:38;;;;;;;10.45;5.82;;;;;;;12.25;56.91;95468.19;5027586;28;20037;-76
2023/10/13 01:25:12;;;;;;;12.25;6.13;;;;;;;12.21;56.88;95471.06;5045162;28;20025;-75
2023/10/13 01:27:38;;;;;;;12.95;5.88;;;;;;;12.16;57.09;95465.31;5013966;28;20100;-75
2023/10/13 01:30:09;;;;;;;11.10;5.47;;;;;;;12.14;57.07;95470.47;5026693;28;20128;-76
2023/10/13 01:32:40;;;;;;;11.75;5.80;;;;;;;12.09;57.34;95469.00;5011884;28;20118;-76
2023/10/13 01:35:07;;;;;;;8.60;5.75;;;;;;;12.10;57.14;95480.78;5026955;28;20132;-76
2023/10/13 01:37:32;;;;;;;8.63;6.00;;;;;;;12.05;57.33;95467.56;5026886;28;20491;-75
2023/10/13 01:39:57;;;;;;;7.53;5.25;;;;;;;12.05;57.15;95468.34;5048647;28;20033;-76
2023/10/13 01:42:24;;;;;;;10.13;5.65;;;;;;;12.06;57.25;95467.13;5030689;28;20022;-75
2023/10/13 01:44:50;;;;;;;7.97;5.40;;;;;;;12.07;57.37;95476.16;5031754;28;20017;-76
2023/10/13 01:47:16;;;;;;;10.35;5.60;;;;;;;12.02;57.52;95480.22;5013848;28;20045;-76
2023/10/13 01:49:42;;;;;;;10.48;5.40;;;;;;;12.02;57.50;95471.19;5031246;28;20409;-76
2023/10/13 01:52:15;;;;;;;14.23;6.00;;;;;;;12.04;57.39;95466.00;5010299;28;20025;-75
2023/10/13 01:54:41;;;;;;;7.57;5.45;;;;;;;12.00;57.46;95466.09;5031102;28;20029;-76
2023/10/13 01:57:07;;;;;;;8.80;5.60;;;;;;;11.97;57.59;95466.97;5030205;28;20063;-76
2023/10/13 01:59:33;;;;;;;9.88;5.50;;;;;;;11.94;57.69;95468.59;5030493;28;20025;-76
2023/10/13 02:02:00;;;;;;;13.80;6.03;;;;;;;11.99;57.44;95467.31;5030657;28;20024;-75
2023/10/13 02:04:27;;;;;;;9.95;6.07;;;;;;;11.95;57.17;95472.13;5030004;28;20072;-75
2023/10/13 02:06:52;;;;;;;10.25;5.82;;;;;;;11.91;57.34;95466.72;5030880;28;20072;-76
2023/10/13 02:09:26;;;;;;;12.00;6.40;;;;;;;11.89;57.04;95463.63;5047416;28;20486;-76
2023/10/13 02:11:55;;;;;;;9.80;7.57;;;;;;;11.85;57.35;95459.41;5010349;28;20052;-75
2023/10/13 02:14:25;;;;;;;9.30;6.32;;;;;;;11.85;57.45;95457.41;5001731;28;20017;-75
2023/10/13 02:16:55;;;;;;;10.10;6.38;;;;;;;11.76;57.42;95457.25;5013972;28;20116;-76
2023/10/13 02:19:21;;;;;;;8.60;5.70;;;;;;;11.76;57.57;95457.25;5031603;28;20025;-75
2023/10/13 02:21:58;;;;;;;9.63;5.57;;;;;;;11.77;57.53;95453.28;5029240;28;20083;-76
2023/10/13 02:24:29;;;;;;;9.75;6.15;;;;;;;11.77;57.33;95458.78;5033097;28;20021;-76
2023/10/13 02:26:56;;;;;;;10.70;6.40;;;;;;;11.72;57.58;95455.78;5030450;28;20075;-76
2023/10/13 02:29:21;;;;;;;8.75;5.80;;;;;;;11.67;57.55;95460.59;5003167;28;20033;-76
2023/10/13 02:31:54;;;;;;;9.15;6.22;;;;;;;11.67;57.64;95457.06;5012923;28;20103;-75
2023/10/13 02:34:22;;;;;;;9.23;5.55;;;;;;;11.68;57.78;95458.59;5031015;28;20041;-76
2023/10/13 02:36:51;;;;;;;10.82;6.35;;;;;;;11.65;57.35;95465.75;5030557;28;20033;-76
2023/10/13 02:39:24;;;;;;;12.23;5.75;;;;;;;11.62;57.28;95472.13;5008859;28;20032;-76
2023/10/13 02:41:50;;;;;;;9.40;6.07;;;;;;;11.62;57.36;95474.88;5014753;28;20112;-76
2023/10/13 02:44:28;;;;;;;11.00;6.15;;;;;;;11.52;57.80;95472.38;5012960;28;20116;-75
2023/10/13 02:46:55;;;;;;;11.23;6.60;;;;;;;11.53;57.81;95466.47;5031480;28;20040;-76
2023/10/13 02:49:37;;;;;;;9.48;6.90;;;;;;;11.50;57.87;95469.28;5013031;28;20025;-76
2023/10/13 02:52:07;;;;;;;9.88;6.28;;;;;;;11.55;57.80;95468.78;5030421;28;20037;-75
2023/10/13 02:54:39;;;;;;;10.70;6.00;;;;;;;11.46;58.17;95471.34;5030904;28;20025;-75
2023/10/13 02:57:05;;;;;;;13.10;7.00;;;;;;;11.48;58.24;95468.97;5029792;28;20025;-75
2023/10/13 02:59:38;;;;;;;12.55;6.43;;;;;;;11.52;58.05;95478.66;5030211;28;20025;-76
2023/10/13 03:04:47;;;;;;;;;;;;;;;11.50;58.04;95477.53;5030674;28;20040;-77
2023/10/13 03:07:22;;;;;;;14.60;6.10;;;;;;;11.44;57.99;95474.53;5030123;28;19916;-75
2023/10/13 03:09:57;;;;;;;11.70;7.13;;;;;;;11.33;58.48;95487.78;5029617;28;20476;-76
2023/10/13 03:12:24;;;;;;;12.30;6.47;;;;;;;11.27;58.28;95489.47;5031716;28;20052;-76
2023/10/13 03:14:57;;;;;;;11.65;7.00;;;;;;;11.28;58.42;95486.28;5029107;28;20036;-76
2023/10/13 03:17:34;;;;;;;17.17;7.22;;;;;;;11.29;58.47;95487.84;5013383;28;20122;-76
2023/10/13 03:20:00;;;;;;;12.98;6.88;;;;;;;11.28;58.33;95482.78;5031291;28;20455;-77
2023/10/13 03:22:32;;;;;;;11.63;6.47;;;;;;;11.25;58.58;95484.41;5028609;28;20108;-77
2023/10/13 03:25:07;;;;;;;12.90;7.38;;;;;;;11.23;58.55;95484.03;5030530;28;20130;-76
2023/10/13 03:28:01;;;;;;;9.63;6.15;;;;;;;11.25;58.89;95484.41;5028525;28;20079;-75
2023/10/13 03:30:34;;;;;;;7.80;6.30;;;;;;;11.21;58.92;95471.94;5032180;28;20509;-76
2023/10/13 03:33:06;;;;;;;10.90;6.50;;;;;;;11.20;58.69;95484.91;5030554;28;20102;-76
2023/10/13 03:35:37;;;;;;;11.45;6.68;;;;;;;11.22;58.68;95478.97;5008346;28;20029;-75
2023/10/13 03:38:03;;;;;;;11.93;6.30;;;;;;;11.22;58.69;95471.50;5009598;28;20025;-75
2023/10/13 03:43:44;;;;;;;10.45;6.53;;;;;;;11.19;58.95;95475.13;5030056;28;20557;-75
2023/10/13 03:45:52;;;;;;;13.38;7.18;;;;;;;11.19;58.78;95461.34;5021646;28;20037;-76
2023/10/13 03:48:51;;;;;;;12.70;6.70;;;;;;;11.21;58.70;95458.16;5012101;28;20052;-76
2023/10/13 03:51:06;;;;;;;9.82;6.55;;;;;;;11.14;59.18;95454.38;5019223;28;20121;-75
2023/10/13 03:53:50;;;;;;;10.25;7.88;;;;;;;11.13;59.58;95444.59;5028213;28;20025;-76
2023/10/13 03:56:15;;;;;;;8.68;7.03;;;;;;;11.14;59.41;95453.59;5030699;28;20033;-76
2023/10/13 03:58:48;;;;;;;20.00;6.55;;;;;;;11.13;59.32;95455.59;5011568;28;20108;-75
2023/10/13 04:01:17;;;;;;;11.82;7.15;;;;;;;11.07;59.27;95454.56;5009833;28;20481;-75
2023/10/13 04:03:57;;;;;;;11.98;7.20;;;;;;;11.05;59.20;95458.91;5029639;28;20029;-75
2023/10/13 04:10:46;;;;;;;12.32;7.07;;;;;;;11.07;59.50;95453.78;5043625;28;20094;-76
2023/10/13 04:17:27;;;;;;;11.07;7.38;;;;;;;11.03;59.55;95451.09;5046335;28;20090;-77
2023/10/13 04:28:15;;;;;;;16.15;9.35;;;;;;;10.99;59.71;95469.66;5030044;28;20124;-76
2023/10/13 04:39:09;;;;;;;18.25;9.15;;;;;;;10.92;60.01;95480.03;5030024;28;20035;-77
2023/10/13 04:42:38;;;;;;;17.17;9.73;;;;;;;10.87;60.39;95489.56;5016700;28;20110;-76
2023/10/13 04:47:17;;;;;;;21.15;10.30;;;;;;;10.89;60.44;95489.91;5030347;28;20033;-76
2023/10/13 04:54:53;;;;;;;15.38;9.25;;;;;;;10.91;60.34;95495.78;5027680;28;20128;-76
2023/10/13 05:52:06;;;;;;;18.63;9.82;;;;;;;11.46;59.56;95545.69;5029119;28;20396;-76
2023/10/13 06:29:48;;;;;;;11.40;8.77;;;;;;;12.53;57.76;95567.91;5038522;28;20028;-76
2023/10/13 06:32:16;;;;;;;15.07;7.60;;;;;;;12.59;57.77;95577.97;5013572;28;20033;-75
2023/10/13 06:34:47;;;;;;;13.48;8.10;;;;;;;12.70;57.66;95577.69;5027193;28;20085;-76
2023/10/13 06:37:25;;;;;;;13.07;8.48;;;;;;;12.73;57.82;95579.56;5010078;28;20041;-76
2023/10/13 06:39:57;;;;;;;14.25;7.50;;;;;;;12.78;57.55;95576.28;5028646;28;20591;-76
2023/10/13 06:42:27;;;;;;;11.52;7.55;;;;;;;12.88;57.72;95574.44;5009263;28;20091;-75
2023/10/13 06:44:56;;;;;;;15.23;8.30;;;;;;;12.97;57.46;95580.88;5026354;28;20039;-75
2023/10/13 06:47:22;;;;;;;15.98;9.02;;;;;;;13.06;57.11;95588.53;5008871;28;20045;-75
2023/10/13 06:49:51;;;;;;;17.85;9.27;;;;;;;13.18;56.90;95592.53;5025830;28;20041;-75
2023/10/13 06:52:17;;;;;;;19.40;9.85;;;;;;;13.24;56.74;95599.09;5026901;28;20026;-76
2023/10/13 06:54:43;;;;;;;16.27;9.68;;;;;;;13.31;56.61;95579.56;5025017;28;20033;-75
2023/10/13 06:57:14;;;;;;;16.40;9.25;;;;;;;13.44;56.53;95576.81;5023537;28;20423;-74
2023/10/13 06:59:40;;;;;;;19.80;9.77;;;;;;;13.52;56.27;95573.41;5025782;28;20033;-74
2023/10/13 07:02:08;;;;;;;12.40;8.73;;;;;;;13.64;55.95;95565.56;5027949;28;20112;-75
2023/10/13 07:04:34;;;;;;;15.77;9.80;;;;;;;13.71;55.64;95557.06;5009908;28;20029;-74
2023/10/13 07:07:00;;;;;;;15.25;9.55;;;;;;;13.82;55.53;95560.28;5027225;28;20228;-75
2023/10/13 07:09:55;;;;;;;16.00;9.95;;;;;;;13.95;55.28;95560.25;5028376;28;20060;-74
2023/10/13 07:12:22;;;;;;;16.05;10.63;;;;;;;14.09;54.97;95562.56;5025219;28;20576;-75
2023/10/13 07:14:51;;;;;;;15.80;9.70;;;;;;;14.28;54.26;95566.31;5026349;28;20025;-75
2023/10/13 07:17:23;;;;;;;15.65;10.13;;;;;;;14.42;53.90;95582.41;5006723;28;20049;-77
2023/10/13 07:19:53;;;;;;;18.48;11.45;;;;;;;14.54;53.82;95578.84;5023394;28;20033;-77
2023/10/13 07:22:19;;;;;;;21.10;10.68;;;;;;;14.70;53.23;95571.63;5006944;28;20061;-76
2023/10/13 07:24:50;;;;;;;16.13;10.27;;;;;;;14.82;53.13;95570.81;5016832;28;20041;-76
2023/10/13 07:27:23;;;;;;;17.40;11.20;;;;;;;14.94;52.75;95569.97;5026521;28;20029;-76
2023/10/13 07:29:56;;;;;;;22.20;12.73;;;;;;;15.13;52.16;95568.09;5026390;28;20029;-77
2023/10/13 07:32:26;;;;;;;22.58;13.27;;;;;;;15.27;51.79;95564.03;5026162;28;20029;-77
2023/10/13 07:34:58;;;;;;;21.25;14.13;;;;;;;15.41;51.57;95561.50;5025238;28;20500;-77
2023/10/13 07:37:28;;;;;;;19.60;11.75;;;;;;;15.57;51.27;95556.97;5024884;28;20029;-77
2023/10/13 07:39:57;;;;;;;17.60;11.35;;;;;;;15.76;50.75;95552.31;5025605;28;20108;-77
2023/10/13 07:42:39;;;;;;;16.10;11.23;;;;;;;15.94;50.14;95555.13;5024576;28;20026;-77
2023/10/13 07:45:05;;;;;;;24.02;11.35;;;;;;;16.13;49.80;95555.97;5025203;28;20021;-77
2023/10/13 07:47:32;;;;;;;18.85;11.20;;;;;;;16.30;49.35;95543.38;5023192;28;20126;-77
2023/10/13 07:49:58;;;;;;;18.88;11.35;;;;;;;16.54;49.02;95551.88;5024663;28;20072;-76
2023/10/13 07:52:36;;;;;;;23.83;11.10;;;;;;;16.72;48.39;95549.16;5025756;28;20036;-79
2023/10/13 07:55:11;;;;;;;22.20;12.23;;;;;;;17.05;47.61;95553.31;5024498;28;20076;-78
2023/10/13 07:57:54;;;;;;;15.88;10.40;;;;;;;17.33;46.96;95548.50;5025837;28;20028;-77
2023/10/13 08:08:38;;;;;;;16.92;10.07;;;;;;;18.90;43.77;95538.13;4932881;29;20431;-77
2023/10/13 08:11:26;;;;;;;23.00;11.90;;;;;;;19.36;43.13;95541.28;4946604;29;20043;-77
2023/10/13 08:13:58;;;;;;;20.10;11.43;;;;;;;19.79;41.96;95545.31;4946159;29;20090;-77
2023/10/13 08:16:39;;;;;;;26.48;12.23;;;;;;;20.17;40.67;95543.59;4945611;29;20139;-78
2023/10/13 08:19:08;;;;;;;18.42;10.25;;;;;;;20.53;40.75;95545.16;4932772;29;20043;-77
2023/10/13 08:21:34;;;;;;;20.42;10.35;;;;;;;20.80;39.95;95546.75;4945826;29;20134;-77
2023/10/13 08:23:59;;;;;;;20.23;11.73;;;;;;;21.19;38.55;95552.03;4946314;29;20511;-77
2023/10/13 08:31:42;;;;;;;20.30;11.05;;;;;;;22.19;37.06;95554.19;4946325;29;20031;-77
2023/10/13 08:34:15;;;;;;;22.52;10.45;;;;;;;22.69;36.52;95550.94;4928857;29;20423;-77
2023/10/13 08:36:41;;;;;;;21.35;10.25;;;;;;;23.02;35.45;95542.69;4931391;29;20038;-77
2023/10/13 08:42:11;;;;;;;17.30;11.25;;;;;;;24.08;33.60;95544.88;4945572;29;20134;-78
2023/10/13 08:44:39;;;;;;;17.33;10.13;;;;;;;24.61;32.59;95539.47;4944446;28;20049;-78
2023/10/13 08:47:05;;;;;;;18.67;10.85;;;;;;;24.86;31.71;95543.19;5006867;28;20029;-78
2023/10/13 08:49:39;;;;;;;22.13;10.98;;;;;;;25.32;31.23;95541.72;5025461;28;20124;-79
2023/10/13 08:52:06;;;;;;;17.17;10.30;;;;;;;25.56;31.17;95536.19;5025661;28;20021;-78
2023/10/13 08:54:33;;;;;;;18.88;9.88;;;;;;;25.89;30.18;95540.09;5008814;28;20534;-78
2023/10/13 08:57:19;;;;;;;17.33;10.82;;;;;;;26.82;29.07;95541.75;5024540;28;20080;-78
2023/10/13 08:59:52;;;;;;;17.92;10.68;;;;;;;27.88;27.37;95541.66;5025327;28;20519;-78
2023/10/13 09:02:22;;;;;;;14.32;10.07;;;;;;;29.11;25.85;95528.13;5025283;28;20049;-79
2023/10/13 09:04:59;;;;;;;23.02;10.32;;;;;;;29.80;24.67;95526.88;5023768;28;20040;-79
2023/10/13 09:07:25;;;;;;;18.63;10.27;;;;;;;30.76;23.89;95525.25;5025188;28;20032;-79
2023/10/13 09:15:17;;;;;;;19.05;9.95;;;;;;;32.88;21.15;95536.97;5025209;28;20044;-81
2023/10/13 09:17:52;;;;;;;15.75;8.95;;;;;;;33.78;20.08;95534.38;5024954;28;20037;-80
2023/10/13 09:23:23;;;;;;;16.70;9.30;;;;;;;35.11;19.00;95532.19;5024789;28;20052;-81
2023/10/13 09:26:32;;;;;;;14.13;8.25;;;;;;;35.68;17.82;95521.06;5023518;28;20105;-81
2023/10/13 09:28:38;;;;;;;17.60;7.88;;;;;;;36.51;17.24;95524.81;5015397;28;20508;-79
2023/10/13 09:31:07;;;;;;;12.88;7.72;;;;;;;36.63;17.61;95516.41;5023673;28;20055;-81
2023/10/13 09:33:35;;;;;;;15.70;7.72;;;;;;;36.42;17.35;95523.44;5031076;28;20037;-82
2023/10/13 09:36:04;;;;;;;15.90;7.85;;;;;;;36.69;17.55;95514.00;5027853;28;20095;-81
2023/10/13 09:38:36;;;;;;;13.90;7.40;;;;;;;37.07;16.74;95510.47;5010757;28;20029;-80
2023/10/13 09:41:17;;;;;;;13.90;7.35;;;;;;;36.95;16.18;95509.56;5028537;28;20104;-81
2023/10/13 09:43:46;;;;;;;13.45;8.38;;;;;;;36.16;17.01;95493.47;5029354;28;20032;-80
2023/10/13 09:46:18;;;;;;;13.73;7.45;;;;;;;35.69;17.38;95493.97;5011007;28;20112;-79
2023/10/13 09:48:49;;;;;;;10.82;7.28;;;;;;;35.64;17.71;95493.66;5027370;28;20031;-79
2023/10/13 09:51:21;;;;;;;10.70;6.80;;;;;;;35.87;17.40;95501.16;5027518;28;20025;-79
2023/10/13 09:54:23;;;;;;;8.60;5.93;;;;;;;36.34;16.67;95499.84;5028656;28;20045;-79
2023/10/13 09:56:56;;;;;;;11.73;6.10;;;;;;;36.86;16.06;95490.19;4992931;28;20345;-79
2023/10/13 09:59:25;;;;;;;13.05;6.35;;;;;;;37.61;15.66;95486.44;5027832;28;20035;-79
2023/10/13 10:01:51;;;;;;;11.70;6.50;;;;;;;38.25;15.15;95478.88;5014578;28;20487;-79
2023/10/13 10:04:19;;;;;;;11.75;6.32;;;;;;;38.17;14.90;95477.53;5030297;28;20522;-80
2023/10/13 10:06:57;;;;;;;9.02;5.88;;;;;;;38.56;14.79;95480.25;5031801;28;20086;-79
2023/10/13 10:09:37;;;;;;;10.40;6.35;;;;;;;39.00;14.48;95471.06;5047945;28;20024;-80
2023/10/13 10:12:25;;;;;;;9.73;5.70;;;;;;;39.17;14.13;95467.91;5015464;28;20029;-81
2023/10/13 10:15:28;;;;;;;7.97;5.90;;;;;;;39.89;13.28;95476.16;5031098;28;20055;-81
2023/10/13 10:17:54;;;;;;;17.70;5.85;;;;;;;40.46;12.99;95471.06;5014632;28;20029;-81
2023/10/13 10:20:42;;;;;;;8.00;5.03;;;;;;;40.44;12.49;95464.44;5031448;28;20025;-81
2023/10/13 10:23:14;;;;;;;8.93;4.00;;;;;;;41.03;11.70;95456.47;5031260;28;20032;-80
2023/10/13 10:25:44;;;;;;;7.90;3.78;;;;;;;41.44;11.70;95459.59;5031593;28;20025;-81
2023/10/13 10:28:15;;;;;;;5.85;3.88;;;;;;;41.86;11.04;95452.59;5032176;28;20028;-81
2023/10/13 10:30:42;;;;;;;8.38;4.00;;;;;;;42.07;11.23;95460.22;5048388;28;20021;-81
2023/10/13 10:33:15;;;;;;;9.32;5.00;;;;;;;41.84;10.98;95457.50;5014853;28;20025;-81
2023/10/13 10:35:46;;;;;;;8.52;4.10;;;;;;;41.55;11.84;95458.03;5031229;28;20108;-80
2023/10/13 10:38:25;;;;;;;7.53;3.58;;;;;;;41.28;11.34;95455.75;5048359;28;20463;-80
2023/10/13 10:40:57;;;;;;;8.35;3.63;;;;;;;40.92;11.67;95448.63;5031336;28;20426;-80
2023/10/13 10:43:26;;;;;;;7.03;3.38;;;;;;;40.69;11.53;95441.50;5047628;28;20025;-81
2023/10/13 10:45:52;;;;;;;6.97;3.78;;;;;;;40.42;12.02;95444.13;5049197;28;20021;-80
2023/10/13 10:48:18;;;;;;;7.18;3.70;;;;;;;40.62;12.00;95441.78;5029399;28;20090;-81
2023/10/13 10:50:54;;;;;;;7.65;3.90;;;;;;;40.80;11.87;95434.97;5014307;28;20025;-79
2023/10/13 10:53:22;;;;;;;9.23;3.78;;;;;;;40.50;11.71;95441.78;5048419;28;20029;-80
2023/10/13 10:55:48;;;;;;;6.30;3.70;;;;;;;40.30;12.33;95442.03;5030469;28;20025;-80
2023/10/13 10:58:28;;;;;;;5.35;3.45;;;;;;;40.03;12.28;95441.75;5030192;28;20032;-81
2023/10/13 11:01:19;;;;;;;8.02;3.70;;;;;;;40.50;11.81;95427.41;5047357;28;20032;-80
2023/10/13 11:03:57;;;;;;;8.73;4.10;;;;;;;40.62;11.53;95427.38;5032295;28;20020;-80
2023/10/13 11:06:26;;;;;;;6.90;2.83;;;;;;;40.88;11.38;95426.78;5029629;28;20183;-80
2023/10/13 11:09:08;;;;;;;9.30;3.45;;;;;;;40.56;11.67;95427.75;5013337;28;20025;-80
2023/10/13 11:11:36;;;;;;;5.20;2.63;;;;;;;41.08;10.82;95427.25;5030638;28;20171;-80
2023/10/13 11:14:23;;;;;;;4.82;2.20;;;;;;;42.00;10.50;95431.69;5046813;28;20116;-81
2023/10/13 11:16:50;;;;;;;6.30;2.63;;;;;;;42.89;10.25;95409.63;5033089;28;20069;-80
2023/10/13 11:19:20;;;;;;;6.22;2.80;;;;;;;43.40;9.37;95412.94;5012874;28;20029;-81
2023/10/13 11:21:47;;;;;;;4.72;3.08;;;;;;;44.42;9.24;95408.28;5030012;28;20055;-80
2023/10/13 11:24:13;;;;;;;6.68;2.30;;;;;;;44.86;8.47;95411.66;5030075;28;20086;-81
2023/10/13 11:26:50;;;;;;;8.52;2.45;;;;;;;45.23;8.71;95408.13;5028719;28;20108;-80
2023/10/13 11:29:19;;;;;;;4.60;2.45;;;;;;;44.16;9.20;95407.78;5015276;28;20060;-80
2023/10/13 11:31:46;;;;;;;5.03;1.92;;;;;;;42.88;9.61;95390.78;5029221;28;20474;-80
2023/10/13 11:34:16;;;;;;;5.00;2.10;;;;;;;41.50;10.51;95399.34;5047539;28;20102;-80
2023/10/13 11:36:41;;;;;;;5.68;2.33;;;;;;;40.59;10.82;95389.03;5047208;28;20021;-80
2023/10/13 11:39:07;;;;;;;4.35;1.83;;;;;;;39.93;11.74;95390.06;5047090;28;20028;-80
2023/10/13 11:41:38;;;;;;;5.13;1.95;;;;;;;39.25;11.94;95390.06;5047000;28;20029;-80
2023/10/13 11:44:23;;;;;;;5.05;1.80;;;;;;;38.49;12.50;95384.31;5012713;28;20057;-80
2023/10/13 11:46:55;;;;;;;8.27;2.00;;;;;;;37.65;12.79;95372.78;5015892;28;20033;-79
2023/10/13 11:52:08;;;;;;;7.65;2.00;;;;;;;36.42;13.96;95377.44;5030856;28;19912;-80
2023/10/13 11:54:36;;;;;;;6.38;1.90;;;;;;;35.93;14.48;95378.66;5031063;28;20032;-80
2023/10/13 11:57:01;;;;;;;4.90;1.90;;;;;;;35.53;15.34;95364.78;5012107;28;20032;-80
2023/10/13 11:59:28;;;;;;;6.95;2.33;;;;;;;35.23;15.15;95358.16;5013052;28;20029;-80
2023/10/13 12:12:20;;;;;;;7.18;2.25;;;;;;;33.28;17.11;95346.19;5030482;28;20036;-80
2023/10/13 12:14:58;;;;;;;4.47;2.10;;;;;;;33.07;16.86;95351.44;5011520;28;20041;-80
2023/10/13 12:17:31;;;;;;;7.55;3.10;;;;;;;32.92;17.36;95351.50;5014591;28;20063;-80
2023/10/13 12:20:06;;;;;;;7.63;2.60;;;;;;;32.76;17.58;95345.88;5028745;28;20388;-80
2023/10/13 12:22:42;;;;;;;6.10;2.75;;;;;;;32.62;17.79;95344.59;5028217;28;20407;-80
2023/10/13 12:25:28;;;;;;;5.50;2.30;;;;;;;32.47;17.70;95336.88;5030711;28;20036;-80
2023/10/13 12:27:57;;;;;;;7.50;2.75;;;;;;;32.32;17.72;95341.84;5030898;28;20047;-81
2023/10/13 12:30:36;;;;;;;6.78;2.60;;;;;;;31.82;18.00;95335.84;5029606;28;20108;-80
2023/10/13 12:33:09;;;;;;;5.07;2.78;;;;;;;31.49;18.29;95346.28;5030014;28;20032;-79
2023/10/13 12:36:30;;;;;;;6.88;2.92;;;;;;;31.32;18.60;95344.75;5028740;28;20051;-80
2023/10/13 12:38:37;;;;;;;5.18;3.03;;;;;;;31.16;18.74;95341.09;5019095;28;20037;-81
2023/10/13 12:52:15;;;;;;;7.97;3.90;;;;;;;30.65;19.40;95333.34;5031232;28;20036;-80
2023/10/13 12:57:23;;;;;;;6.13;3.35;;;;;;;30.38;19.70;95326.44;5029443;28;20037;-80
2023/10/13 12:59:49;;;;;;;6.07;2.15;;;;;;;30.22;19.91;95324.84;5028584;28;20305;-80
2023/10/13 13:02:14;;;;;;;5.95;2.13;;;;;;;30.03;19.89;95325.84;5045036;28;20025;-80
2023/10/13 13:04:44;;;;;;;5.32;2.33;;;;;;;29.86;20.74;95323.47;5046271;28;20043;-80
2023/10/13 13:07:13;;;;;;;7.80;2.63;;;;;;;29.78;20.64;95322.66;5027564;28;20098;-80
2023/10/13 13:09:40;;;;;;;6.47;2.90;;;;;;;29.72;20.56;95329.81;5028432;28;20029;-80
2023/10/13 13:12:06;;;;;;;7.93;2.75;;;;;;;29.54;20.31;95320.22;5011285;28;20086;-80
2023/10/13 13:14:34;;;;;;;6.63;2.22;;;;;;;29.43;20.48;95320.50;5027826;28;20029;-80
2023/10/13 13:17:05;;;;;;;6.70;2.38;;;;;;;29.28;20.07;95318.28;5028493;28;20065;-80
2023/10/13 13:19:36;;;;;;;9.35;2.13;;;;;;;29.19;20.47;95319.53;5027777;28;20103;-80
2023/10/13 13:22:09;;;;;;;4.95;2.40;;;;;;;29.08;20.42;95316.97;5028339;28;20017;-80
2023/10/13 13:24:34;;;;;;;5.00;2.40;;;;;;;29.04;20.91;95319.38;5044972;28;20135;-79
2023/10/13 13:27:03;;;;;;;4.55;2.28;;;;;;;28.95;21.14;95323.44;5045535;28;20039;-79
2023/10/13 13:29:29;;;;;;;8.70;2.72;;;;;;;28.86;21.19;95314.66;5011934;28;20529;-79
2023/10/13 13:31:55;;;;;;;5.97;2.60;;;;;;;28.78;21.36;95308.88;5027080;28;20052;-79
2023/10/13 13:34:21;;;;;;;5.75;2.90;;;;;;;28.64;21.50;95307.44;5030327;28;20507;-79
2023/10/13 13:36:52;;;;;;;7.82;3.63;;;;;;;28.49;21.56;95313.66;5014168;28;20028;-80
2023/10/13 13:39:29;;;;;;;6.63;3.10;;;;;;;28.37;21.74;95313.13;5034060;28;20025;-79
2023/10/13 13:41:58;;;;;;;7.07;3.10;;;;;;;28.31;22.01;95310.41;5032308;28;20490;-80
2023/10/13 13:44:29;;;;;;;7.60;3.28;;;;;;;28.18;22.23;95310.44;5031573;28;20656;-80
2023/10/13 13:46:57;;;;;;;6.57;3.35;;;;;;;28.15;22.46;95313.56;5014722;28;20036;-78
2023/10/13 13:49:39;;;;;;;6.05;3.60;;;;;;;28.10;22.64;95314.44;5048904;28;20033;-78
2023/10/13 13:52:05;;;;;;;5.22;2.70;;;;;;;28.01;21.97;95310.00;5018927;28;20033;-77
2023/10/13 13:54:30;;;;;;;7.63;4.00;;;;;;;27.94;22.18;95313.50;5030408;28;20403;-87
2023/10/13 13:56:57;;;;;;;6.70;4.03;;;;;;;27.77;22.35;95317.41;5032495;28;20033;-89
2023/10/13 13:59:23;;;;;;;7.13;3.40;;;;;;;27.65;22.64;95316.06;5015228;28;20025;-82
2023/10/13 14:01:48;;;;;;;8.60;3.72;;;;;;;27.55;22.71;95312.13;5034015;28;20025;-78
2023/10/13 14:04:17;;;;;;;5.45;2.90;;;;;;;27.49;22.78;95314.31;5032077;28;20103;-86
2023/10/13 14:06:44;;;;;;;6.93;2.75;;;;;;;27.47;23.25;95314.06;5015537;28;20036;-78
2023/10/13 14:09:32;;;;;;;6.43;3.42;;;;;;;27.41;23.18;95311.38;5015377;28;20029;-84
2023/10/13 14:14:50;;;;;;;4.47;2.65;;;;;;;27.31;23.34;95313.06;5049873;28;20067;-80
2023/10/13 14:17:16;;;;;;;4.55;2.70;;;;;;;27.27;23.33;95315.44;5048408;28;20033;-79
2023/10/13 14:19:43;;;;;;;6.07;2.65;;;;;;;27.20;23.47;95308.38;5047489;28;20534;-78
2023/10/13 14:22:12;;;;;;;6.50;2.63;;;;;;;27.19;24.05;95303.28;5015314;28;20029;-87
2023/10/13 14:24:43;;;;;;;5.22;2.42;;;;;;;27.21;22.90;95309.91;5010170;28;20030;-78
2023/10/13 14:27:11;;;;;;;8.95;3.10;;;;;;;27.14;22.91;95313.34;4996692;28;20025;-83
2023/10/13 14:29:42;;;;;;;9.10;3.25;;;;;;;27.05;23.28;95307.31;5029612;28;20208;-78
2023/10/13 14:32:17;;;;;;;6.93;3.15;;;;;;;26.99;24.06;95316.63;5030018;28;20035;-79
2023/10/13 14:34:44;;;;;;;14.38;3.08;;;;;;;26.76;23.35;95315.47;5030577;28;20129;-91
2023/10/13 14:37:13;;;;;;;5.47;2.67;;;;;;;26.66;23.56;95319.97;5012462;28;20044;-78
2023/10/13 14:39:39;;;;;;;3.92;2.70;;;;;;;26.58;24.01;95317.00;5048736;28;20025;-81
2023/10/13 14:42:07;;;;;;;6.55;2.72;;;;;;;26.53;23.76;95306.56;5029069;28;20515;-79
2023/10/13 14:44:33;;;;;;;29.10;4.53;;;;;;;26.54;26.47;95315.78;5030722;28;20033;-79
2023/10/13 14:46:59;;;;;;;7.85;3.30;;;;;;;26.50;26.29;95313.28;5027762;28;20082;-76
2023/10/13 14:49:25;;;;;;;6.00;2.80;;;;;;;26.35;24.16;95305.25;5013810;28;20099;-81
2023/10/13 14:51:50;;;;;;;6.78;2.85;;;;;;;26.34;25.27;95314.25;5030277;28;20108;-79